createdAt,value
2023-04-10T00:01:45.481Z,23.83
2023-04-10T00:04:12.289Z,25.03
2023-04-10T00:06:39.114Z,23.10
2023-04-10T00:09:05.647Z,24.50
2023-04-10T00:11:32.132Z,24.03
2023-04-10T00:13:58.697Z,25.20
2023-04-10T00:16:25.488Z,23.87
2023-04-10T00:18:51.932Z,22.87
2023-04-10T00:21:18.544Z,23.90
2023-04-10T00:23:45.116Z,24.70
2023-04-10T00:26:11.638Z,25.17
2023-04-10T00:28:38.363Z,24.87
2023-04-10T00:31:05.432Z,24.90
2023-04-10T00:33:32.165Z,25.37
2023-04-10T00:35:58.826Z,24.27
2023-04-10T00:38:25.601Z,23.47
2023-04-10T00:40:52.100Z,24.40
2023-04-10T00:43:20.390Z,25.57
2023-04-10T00:45:48.857Z,25.27
2023-04-10T00:48:16.589Z,25.87
2023-04-10T00:50:43.378Z,24.37
2023-04-10T00:53:09.938Z,25.07
2023-04-10T00:55:37.080Z,24.00
2023-04-10T00:58:03.646Z,24.80
2023-04-10T01:00:31.001Z,25.60
2023-04-10T01:02:57.745Z,25.70
2023-04-10T01:05:25.678Z,25.83
2023-04-10T01:07:58.466Z,25.10
2023-04-10T01:10:37.345Z,27.23
2023-04-10T01:13:11.417Z,24.87
2023-04-10T01:15:42.768Z,25.70
2023-04-10T01:18:09.429Z,25.10
2023-04-10T01:20:38.012Z,26.33
2023-04-10T01:23:19.856Z,25.57
2023-04-10T01:25:46.689Z,25.70
2023-04-10T01:28:13.354Z,26.97
2023-04-10T01:30:40.489Z,24.93
2023-04-10T01:33:09.815Z,27.50
2023-04-10T01:35:36.982Z,27.90
2023-04-10T01:38:05.473Z,27.10
2023-04-10T01:40:32.963Z,26.00
2023-04-10T01:43:00.462Z,27.13
2023-04-10T01:45:28.193Z,27.60
2023-04-10T01:47:55.434Z,26.27
2023-04-10T01:50:25.401Z,28.10
2023-04-10T01:52:53.028Z,28.27
2023-04-10T01:55:20.765Z,28.80
2023-04-10T01:57:49.154Z,28.40
2023-04-10T02:00:16.510Z,27.10
2023-04-10T02:02:43.478Z,26.97
2023-04-10T02:05:13.550Z,26.73
2023-04-10T02:07:42.838Z,27.67
2023-04-10T02:10:11.412Z,26.33
2023-04-10T02:12:56.729Z,27.27
2023-04-10T02:15:24.413Z,27.57
2023-04-10T02:17:52.015Z,28.67
2023-04-10T02:20:18.976Z,28.73
2023-04-10T02:22:45.740Z,27.07
2023-04-10T02:25:12.484Z,28.13
2023-04-10T02:27:39.641Z,27.90
2023-04-10T02:30:06.746Z,27.57
2023-04-10T02:32:33.816Z,28.07
2023-04-10T02:35:02.016Z,28.90
2023-04-10T02:37:29.051Z,29.23
2023-04-10T02:39:55.738Z,28.00
2023-04-10T02:42:22.507Z,30.33
2023-04-10T02:44:49.110Z,28.13
2023-04-10T02:47:16.249Z,28.70
2023-04-10T02:49:42.846Z,28.07
2023-04-10T02:52:09.644Z,28.07
2023-04-10T02:54:36.272Z,26.67
2023-04-10T02:57:03.028Z,27.23
2023-04-10T02:59:29.581Z,27.87
2023-04-10T03:01:56.415Z,28.23
2023-04-10T03:04:23.172Z,28.33
2023-04-10T03:06:49.898Z,28.47
2023-04-10T03:09:17.088Z,28.03
2023-04-10T03:11:43.628Z,27.13
2023-04-10T03:14:13.287Z,28.67
2023-04-10T03:16:39.986Z,27.43
2023-04-10T03:19:06.609Z,29.27
2023-04-10T03:21:33.215Z,30.23
2023-04-10T03:23:59.830Z,29.53
2023-04-10T03:26:26.694Z,29.20
2023-04-10T03:28:53.338Z,27.73
2023-04-10T03:31:20.139Z,28.63
2023-04-10T03:33:46.787Z,29.80
2023-04-10T03:36:13.440Z,28.70
2023-04-10T03:38:39.990Z,28.60
2023-04-10T03:41:06.804Z,28.43
2023-04-10T03:43:33.351Z,28.27
2023-04-10T03:46:00.022Z,29.93
2023-04-10T03:48:28.543Z,29.90
2023-04-10T03:50:55.475Z,27.83
2023-04-10T03:53:22.026Z,28.13
2023-04-10T03:55:48.706Z,28.63
2023-04-10T03:58:15.455Z,28.47
2023-04-10T04:00:42.086Z,27.37
2023-04-10T04:03:09.111Z,27.77
2023-04-10T04:05:35.867Z,27.57
2023-04-10T04:08:05.153Z,28.10
2023-04-10T04:10:31.713Z,26.73
2023-04-10T04:12:58.529Z,28.60
2023-04-10T04:15:45.139Z,26.70
2023-04-10T04:18:14.078Z,26.57
2023-04-10T04:20:58.713Z,26.03
2023-04-10T04:23:45.555Z,24.57
2023-04-10T04:26:32.154Z,24.53
2023-04-10T04:29:07.901Z,26.10
2023-04-10T04:31:37.156Z,24.87
2023-04-10T04:34:03.871Z,25.13
2023-04-10T04:36:31.381Z,25.80
2023-04-10T04:38:57.923Z,24.50
2023-04-10T04:41:24.458Z,24.83
2023-04-10T04:43:53.595Z,24.00
2023-04-10T04:46:20.402Z,24.37
2023-04-10T04:48:46.969Z,23.10
2023-04-10T04:51:13.461Z,24.07
2023-04-10T04:53:40.305Z,23.60
2023-04-10T04:56:07.208Z,22.53
2023-04-10T04:58:33.932Z,24.40
2023-04-10T05:01:00.987Z,22.50
2023-04-10T05:03:30.877Z,23.47
2023-04-10T05:05:58.132Z,23.17
2023-04-10T05:08:24.760Z,22.80
2023-04-10T05:10:51.282Z,22.77
2023-04-10T05:13:17.856Z,21.87
2023-04-10T05:15:44.876Z,21.17
2023-04-10T05:18:11.664Z,20.70
2023-04-10T05:20:38.382Z,21.73
2023-04-10T05:23:05.095Z,19.30
2023-04-10T05:25:31.814Z,21.13
2023-04-10T05:27:58.498Z,20.33
2023-04-10T05:30:25.234Z,20.23
2023-04-10T05:32:51.845Z,19.27
2023-04-10T05:35:18.472Z,20.30
2023-04-10T05:37:45.340Z,18.40
2023-04-10T05:40:11.908Z,19.10
2023-04-10T05:42:38.525Z,19.70
2023-04-10T05:45:05.485Z,17.67
2023-04-10T05:47:32.249Z,17.43
2023-04-10T05:49:58.856Z,18.60
2023-04-10T05:52:25.403Z,18.87
2023-04-10T05:54:52.304Z,17.90
2023-04-10T05:57:18.953Z,18.17
2023-04-10T05:59:45.543Z,17.13
2023-04-10T06:02:12.578Z,16.40
2023-04-10T06:04:39.579Z,16.80
2023-04-10T06:07:06.552Z,17.53
2023-04-10T06:09:33.096Z,16.20
2023-04-10T06:11:59.761Z,16.83
2023-04-10T06:14:26.314Z,17.23
2023-04-10T06:16:52.818Z,16.37
2023-04-10T06:19:19.426Z,15.87
2023-04-10T06:21:46.801Z,16.33
2023-04-10T06:24:14.368Z,15.83
2023-04-10T06:26:40.995Z,15.40
2023-04-10T06:29:07.589Z,15.57
2023-04-10T06:31:34.420Z,14.90
2023-04-10T06:34:01.142Z,13.77
2023-04-10T06:36:27.864Z,13.90
2023-04-10T06:38:54.752Z,14.00
2023-04-10T06:41:21.582Z,14.83
2023-04-10T06:43:48.200Z,14.10
2023-04-10T06:46:16.353Z,13.63
2023-04-10T06:48:43.051Z,14.23
2023-04-10T06:51:09.743Z,13.93
2023-04-10T06:53:36.691Z,14.23
2023-04-10T06:56:03.811Z,13.60
2023-04-10T06:58:31.205Z,13.23
2023-04-10T07:00:58.978Z,13.50
2023-04-10T07:03:25.673Z,13.90
2023-04-10T07:05:52.237Z,13.30
2023-04-10T07:08:18.888Z,13.57
2023-04-10T07:10:45.468Z,13.73
2023-04-10T07:13:11.994Z,13.00
2023-04-10T07:15:38.584Z,13.43
2023-04-10T07:18:05.676Z,13.17
2023-04-10T07:20:32.422Z,12.77
2023-04-10T07:22:58.929Z,12.43
2023-04-10T07:25:25.533Z,12.73
2023-04-10T07:27:52.053Z,12.37
2023-04-10T07:30:19.080Z,13.33
2023-04-10T07:32:46.140Z,12.20
2023-04-10T07:35:12.862Z,11.63
2023-04-10T07:37:40.902Z,12.17
2023-04-10T07:40:08.062Z,11.63
2023-04-10T07:42:34.729Z,12.50
2023-04-10T07:45:02.328Z,11.50
2023-04-10T07:47:29.356Z,11.50
2023-04-10T07:49:56.591Z,12.37
2023-04-10T07:52:23.182Z,11.83
2023-04-10T07:54:49.775Z,11.87
2023-04-10T07:57:16.571Z,12.80
2023-04-10T07:59:43.222Z,11.57
2023-04-10T08:02:09.947Z,11.17
2023-04-10T08:04:36.802Z,11.70
2023-04-10T08:07:03.552Z,12.20
2023-04-10T08:09:30.450Z,11.20
2023-04-10T08:11:57.361Z,11.77
2023-04-10T08:14:23.926Z,12.07
2023-04-10T08:16:50.720Z,11.10
2023-04-10T08:19:17.375Z,11.70
2023-04-10T08:21:44.037Z,12.30
2023-04-10T08:24:10.738Z,11.97
2023-04-10T08:26:37.360Z,11.53
2023-04-10T08:29:03.915Z,11.50
2023-04-10T08:31:30.949Z,11.33
2023-04-10T08:33:58.553Z,11.37
2023-04-10T08:36:27.324Z,11.03
2023-04-10T08:38:53.959Z,11.30
2023-04-10T08:41:20.898Z,11.67
2023-04-10T08:43:47.600Z,11.20
2023-04-10T08:46:17.424Z,10.70
2023-04-10T08:48:52.618Z,9.80
2023-04-10T08:51:20.706Z,10.60
2023-04-10T08:53:54.257Z,10.27
2023-04-10T08:56:21.017Z,10.10
2023-04-10T08:58:48.222Z,10.63
2023-04-10T09:01:15.115Z,11.43
2023-04-10T09:03:42.571Z,9.93
2023-04-10T09:06:09.470Z,10.40
2023-04-10T09:08:36.185Z,9.83
2023-04-10T09:11:02.735Z,10.63
2023-04-10T09:13:42.364Z,10.07
2023-04-10T09:16:09.701Z,9.00
2023-04-10T09:18:43.532Z,9.33
2023-04-10T09:21:11.299Z,9.47
2023-04-10T09:23:37.930Z,9.80
2023-04-10T09:26:26.976Z,9.80
2023-04-10T09:28:58.043Z,8.80
2023-04-10T09:31:29.680Z,8.80
2023-04-10T09:34:09.457Z,9.40
2023-04-10T09:36:37.430Z,9.70
2023-04-10T09:39:04.961Z,8.83
2023-04-10T09:41:31.463Z,9.47
2023-04-10T09:44:11.884Z,9.93
2023-04-10T09:46:38.464Z,9.50
2023-04-10T09:49:06.152Z,9.13
2023-04-10T09:51:34.105Z,9.50
2023-04-10T09:54:01.359Z,8.87
2023-04-10T09:56:29.200Z,8.93
2023-04-10T09:58:59.838Z,9.10
2023-04-10T10:01:34.630Z,9.53
2023-04-10T10:04:02.494Z,9.63
2023-04-10T10:06:31.747Z,9.47
2023-04-10T10:09:07.407Z,9.13
2023-04-10T10:11:35.393Z,8.50
2023-04-10T10:14:15.699Z,8.80
2023-04-10T10:17:01.884Z,9.00
2023-04-10T10:19:33.108Z,8.93
2023-04-10T10:22:01.155Z,7.90
2023-04-10T10:24:28.298Z,8.27
2023-04-10T10:26:55.666Z,8.00
2023-04-10T10:29:23.721Z,7.80
2023-04-10T10:31:50.532Z,7.97
2023-04-10T10:34:17.287Z,7.20
2023-04-10T10:36:43.877Z,7.40
2023-04-10T10:39:18.530Z,7.10
2023-04-10T10:41:58.996Z,7.30
2023-04-10T10:44:35.065Z,7.00
2023-04-10T10:47:06.505Z,6.90
2023-04-10T10:49:51.914Z,6.63
2023-04-10T10:52:36.629Z,6.80
2023-04-10T10:55:22.052Z,6.07
2023-04-10T10:57:48.604Z,6.60
2023-04-10T11:00:16.258Z,7.20
2023-04-10T11:02:42.871Z,6.37
2023-04-10T11:05:09.670Z,7.30
2023-04-10T11:07:55.100Z,6.60
2023-04-10T11:10:41.553Z,7.30
2023-04-10T11:13:18.002Z,6.20
2023-04-10T11:15:44.914Z,6.13
2023-04-10T11:18:13.735Z,6.03
2023-04-10T11:20:59.689Z,6.13
2023-04-10T11:23:26.914Z,6.40
2023-04-10T11:25:54.130Z,6.03
2023-04-10T11:28:39.529Z,6.40
2023-04-10T11:31:22.604Z,6.37
2023-04-10T11:33:56.931Z,6.30
2023-04-10T11:36:24.027Z,5.90
2023-04-10T11:39:01.842Z,6.10
2023-04-10T11:41:30.750Z,5.57
2023-04-10T11:43:57.919Z,6.03
2023-04-10T11:46:24.645Z,5.43
2023-04-10T11:49:10.236Z,5.37
2023-04-10T11:51:37.443Z,5.37
2023-04-10T11:54:14.440Z,5.70
2023-04-10T11:56:42.088Z,5.73
2023-04-10T11:59:14.535Z,5.80
2023-04-10T12:01:43.303Z,6.20
2023-04-10T12:04:14.743Z,5.87
2023-04-10T12:06:44.053Z,5.60
2023-04-10T12:09:14.989Z,5.57
2023-04-10T12:11:48.895Z,5.53
2023-04-10T12:14:15.426Z,5.13
2023-04-10T12:16:42.212Z,4.80
2023-04-10T12:19:08.764Z,4.87
2023-04-10T12:21:39.515Z,5.33
2023-04-10T12:24:06.093Z,5.23
2023-04-10T12:26:32.649Z,5.53
2023-04-10T12:28:59.318Z,5.20
2023-04-10T12:31:33.475Z,5.83
2023-04-10T12:34:01.259Z,5.27
2023-04-10T12:36:29.951Z,5.27
2023-04-10T12:38:57.649Z,5.40
2023-04-10T12:41:28.670Z,5.00
2023-04-10T12:44:06.889Z,5.20
2023-04-10T12:46:33.676Z,5.63
2023-04-10T12:49:08.957Z,5.30
2023-04-10T12:52:02.025Z,4.77
2023-04-10T12:54:29.171Z,5.93
2023-04-10T12:56:56.126Z,5.47
2023-04-10T12:59:23.678Z,5.00
2023-04-10T13:01:50.830Z,5.47
2023-04-10T13:04:18.815Z,5.73
2023-04-10T13:06:46.221Z,5.80
2023-04-10T13:09:13.488Z,6.13
2023-04-10T13:11:41.346Z,5.73
2023-04-10T13:14:08.563Z,5.67
2023-04-10T13:16:35.739Z,5.27
2023-04-10T13:19:02.630Z,5.50
2023-04-10T13:21:29.888Z,5.60
2023-04-10T13:23:56.632Z,5.30
2023-04-10T13:26:23.686Z,5.17
2023-04-10T13:28:50.705Z,4.97
2023-04-10T13:31:17.346Z,5.50
2023-04-10T13:33:47.092Z,4.50
2023-04-10T13:36:14.452Z,4.93
2023-04-10T13:38:41.224Z,4.97
2023-04-10T13:41:08.083Z,4.40
2023-04-10T13:43:34.616Z,4.77
2023-04-10T13:46:01.182Z,4.73
2023-04-10T13:48:37.531Z,4.53
2023-04-10T13:51:07.545Z,4.30
2023-04-10T13:53:34.725Z,4.53
2023-04-10T13:56:01.239Z,4.00
2023-04-10T13:58:31.826Z,4.50
2023-04-10T14:00:58.885Z,4.67
2023-04-10T14:03:25.694Z,5.00
2023-04-10T14:05:52.948Z,4.63
2023-04-10T14:08:20.010Z,4.77
2023-04-10T14:10:50.717Z,4.53
2023-04-10T14:13:17.779Z,4.13
2023-04-10T14:15:44.621Z,4.30
2023-04-10T14:18:11.358Z,3.97
2023-04-10T14:20:38.102Z,3.90
2023-04-10T14:23:05.434Z,4.00
2023-04-10T14:25:31.929Z,4.00
2023-04-10T14:27:59.377Z,3.63
2023-04-10T14:30:30.789Z,3.97
2023-04-10T14:32:57.554Z,3.40
2023-04-10T14:35:24.170Z,3.73
2023-04-10T14:37:50.679Z,3.63
2023-04-10T14:40:17.283Z,3.27
2023-04-10T14:42:43.782Z,2.90
2023-04-10T14:45:10.769Z,3.00
2023-04-10T14:47:37.433Z,2.80
2023-04-10T14:50:04.160Z,3.10
2023-04-10T14:52:30.698Z,2.90
2023-04-10T14:54:57.218Z,2.80
2023-04-10T14:57:23.714Z,3.10
2023-04-10T14:59:50.334Z,3.10
2023-04-10T15:02:16.897Z,2.87
2023-04-10T15:04:43.578Z,3.00
2023-04-10T15:07:10.123Z,3.07
2023-04-10T15:09:36.757Z,2.47
2023-04-10T15:12:03.301Z,2.60
2023-04-10T15:14:31.079Z,2.67
2023-04-10T15:16:57.715Z,2.97
2023-04-10T15:19:24.390Z,2.47
2023-04-10T15:21:50.960Z,2.60
2023-04-10T15:24:17.557Z,2.50
2023-04-10T15:26:47.455Z,2.80
2023-04-10T15:29:14.380Z,2.87
2023-04-10T15:31:41.008Z,2.33
2023-04-10T15:34:07.701Z,2.37
2023-04-10T15:36:34.290Z,2.57
2023-04-10T15:39:02.867Z,2.83
2023-04-10T15:41:31.788Z,2.70
2023-04-10T15:43:58.632Z,2.63
2023-04-10T15:46:25.420Z,2.47
2023-04-10T15:48:52.022Z,2.40
2023-04-10T15:51:18.606Z,2.47
2023-04-10T15:53:45.126Z,2.37
2023-04-10T15:56:11.709Z,2.20
2023-04-10T15:58:38.256Z,2.43
2023-04-10T16:01:04.964Z,2.50
2023-04-10T16:03:31.784Z,2.90
2023-04-10T16:05:58.764Z,2.50
2023-04-10T16:08:26.317Z,2.80
2023-04-10T16:10:53.282Z,2.33
2023-04-10T16:13:19.836Z,2.33
2023-04-10T16:15:47.230Z,2.40
2023-04-10T16:18:13.881Z,2.77
2023-04-10T16:20:41.169Z,2.77
2023-04-10T16:23:07.733Z,2.43
2023-04-10T16:25:34.297Z,2.90
2023-04-10T16:28:08.045Z,2.73
2023-04-10T16:30:35.409Z,3.20
2023-04-10T16:33:02.344Z,2.70
2023-04-10T16:35:29.096Z,3.00
2023-04-10T16:37:55.639Z,2.83
2023-04-10T16:40:22.161Z,2.50
2023-04-10T16:42:48.699Z,2.50
2023-04-10T16:45:15.499Z,2.53
2023-04-10T16:47:44.629Z,2.60
2023-04-10T16:50:11.465Z,2.73
2023-04-10T16:52:38.076Z,2.53
2023-04-10T16:55:04.953Z,2.60
2023-04-10T16:57:32.143Z,2.50
2023-04-10T16:59:59.340Z,2.73
2023-04-10T17:02:26.402Z,2.80
2023-04-10T17:04:56.357Z,2.50
2023-04-10T17:07:23.320Z,2.70
2023-04-10T17:09:50.066Z,2.63
2023-04-10T17:12:16.710Z,2.83
2023-04-10T17:14:43.384Z,2.90
2023-04-10T17:17:10.093Z,3.07
2023-04-10T17:19:36.764Z,2.67
2023-04-10T17:22:03.610Z,3.17
2023-04-10T17:24:31.544Z,3.13
2023-04-10T17:26:58.475Z,2.77
2023-04-10T17:29:25.948Z,2.97
2023-04-10T17:31:52.625Z,2.90
2023-04-10T17:34:19.245Z,3.00
2023-04-10T17:36:45.728Z,3.13
2023-04-10T17:39:12.221Z,2.87
2023-04-10T17:41:38.806Z,2.37
2023-04-10T17:44:05.681Z,3.00
2023-04-10T17:46:32.297Z,3.13
2023-04-10T17:49:01.490Z,3.03
2023-04-10T17:51:28.401Z,2.87
2023-04-10T17:53:57.880Z,3.00
2023-04-10T17:56:24.417Z,3.00
2023-04-10T17:58:52.730Z,2.70
2023-04-10T18:01:23.651Z,2.90
2023-04-10T18:03:52.546Z,3.43
2023-04-10T18:06:19.759Z,2.70
2023-04-10T18:08:46.468Z,3.00
2023-04-10T18:11:13.930Z,2.73
2023-04-10T18:13:41.243Z,3.23
2023-04-10T18:16:08.360Z,3.10
2023-04-10T18:18:35.585Z,2.60
2023-04-10T18:21:03.150Z,2.60
2023-04-10T18:23:31.285Z,3.07
2023-04-10T18:25:58.361Z,2.77
2023-04-10T18:28:25.214Z,2.40
2023-04-10T18:30:56.922Z,2.60
2023-04-10T18:33:26.638Z,2.73
2023-04-10T18:35:57.379Z,2.90
2023-04-10T18:38:24.372Z,2.60
2023-04-10T18:40:54.197Z,2.63
2023-04-10T18:43:20.998Z,3.10
2023-04-10T18:45:47.562Z,2.60
2023-04-10T18:48:14.210Z,2.77
2023-04-10T18:50:41.085Z,2.50
2023-04-10T18:53:07.680Z,3.00
2023-04-10T18:55:34.213Z,2.40
2023-04-10T18:58:00.865Z,3.17
2023-04-10T19:00:27.480Z,2.83
2023-04-10T19:02:54.819Z,3.00
2023-04-10T19:05:21.969Z,3.00
2023-04-10T19:08:00.769Z,2.70
2023-04-10T19:10:30.978Z,3.30
2023-04-10T19:12:57.540Z,3.07
2023-04-10T19:15:24.539Z,3.00
2023-04-10T19:17:54.727Z,3.43
2023-04-10T19:20:52.241Z,3.23
2023-04-10T19:23:08.144Z,3.20
2023-04-10T19:25:34.676Z,2.70
2023-04-10T19:28:01.207Z,3.20
2023-04-10T19:30:28.567Z,3.37
2023-04-10T19:32:55.908Z,3.40
2023-04-10T19:35:22.770Z,2.77
2023-04-10T19:37:49.943Z,3.10
2023-04-10T19:40:17.572Z,2.67
2023-04-10T19:42:44.096Z,3.00
2023-04-10T19:45:11.229Z,2.97
2023-04-10T19:47:37.899Z,2.60
2023-04-10T19:50:04.538Z,2.63
2023-04-10T19:52:31.200Z,2.80
2023-04-10T19:54:57.813Z,2.30
2023-04-10T19:57:24.501Z,2.60
2023-04-10T19:59:51.457Z,2.40
2023-04-10T20:02:18.547Z,2.33
2023-04-10T20:04:47.208Z,2.50
2023-04-10T20:07:15.276Z,2.50
2023-04-10T20:09:41.920Z,2.90
2023-04-10T20:12:09.252Z,2.57
2023-04-10T20:14:35.888Z,2.33
2023-04-10T20:17:02.458Z,2.33
2023-04-10T20:19:29.124Z,2.70
2023-04-10T20:21:55.876Z,2.63
2023-04-10T20:24:22.387Z,2.90
2023-04-10T20:26:49.021Z,3.10
2023-04-10T20:29:15.544Z,3.07
2023-04-10T20:31:42.168Z,3.00
2023-04-10T20:34:08.991Z,3.30
2023-04-10T20:36:35.649Z,3.37
2023-04-10T20:39:02.374Z,3.73
2023-04-10T20:41:29.078Z,3.47
2023-04-10T20:43:57.495Z,3.93
2023-04-10T20:46:27.076Z,3.70
2023-04-10T20:48:59.340Z,4.10
2023-04-10T20:51:27.439Z,3.80
2023-04-10T20:53:54.291Z,3.97
2023-04-10T20:56:24.812Z,4.00
2023-04-10T20:58:53.995Z,3.73
2023-04-10T21:01:20.776Z,4.03
2023-04-10T21:03:47.484Z,3.93
2023-04-10T21:06:15.436Z,3.63
2023-04-10T21:08:41.991Z,4.00
2023-04-10T21:11:08.676Z,3.80
2023-04-10T21:13:37.885Z,4.03
2023-04-10T21:16:05.370Z,4.10
2023-04-10T21:18:32.163Z,4.70
2023-04-10T21:20:58.744Z,5.13
2023-04-10T21:23:25.528Z,4.90
2023-04-10T21:25:55.038Z,4.53
2023-04-10T21:28:21.572Z,4.30
2023-04-10T21:30:48.160Z,3.90
2023-04-10T21:33:14.767Z,4.10
2023-04-10T21:35:45.173Z,3.60
2023-04-10T21:38:12.101Z,3.70
2023-04-10T21:40:38.718Z,3.93
2023-04-10T21:43:05.334Z,3.83
2023-04-10T21:45:32.124Z,4.20
2023-04-10T21:48:00.439Z,4.20
2023-04-10T21:50:27.135Z,4.50
2023-04-10T21:52:53.662Z,4.20
2023-04-10T21:55:20.275Z,3.83
2023-04-10T21:57:46.798Z,4.10
2023-04-10T22:00:13.928Z,4.20
2023-04-10T22:02:40.771Z,3.97
2023-04-10T22:05:07.658Z,4.40
2023-04-10T22:07:34.124Z,5.00
2023-04-10T22:10:00.897Z,4.27
2023-04-10T22:12:27.550Z,4.07
2023-04-10T22:14:54.080Z,4.80
2023-04-10T22:17:20.957Z,4.67
2023-04-10T22:19:47.607Z,4.83
2023-04-10T22:22:14.125Z,4.60
2023-04-10T22:24:41.038Z,4.93
2023-04-10T22:27:10.950Z,5.30
2023-04-10T22:29:37.479Z,4.70
2023-04-10T22:32:04.115Z,4.87
2023-04-10T22:34:30.712Z,5.13
2023-04-10T22:36:57.764Z,5.43
2023-04-10T22:39:24.366Z,4.53
2023-04-10T22:41:51.075Z,5.03
2023-04-10T22:44:17.732Z,4.70
2023-04-10T22:46:44.325Z,5.43
2023-04-10T22:49:10.981Z,5.13
2023-04-10T22:51:37.527Z,4.87
2023-04-10T22:54:04.128Z,4.73
2023-04-10T22:56:30.670Z,5.13
2023-04-10T22:58:57.372Z,5.37
2023-04-10T23:01:24.000Z,4.67
2023-04-10T23:03:53.739Z,4.33
2023-04-10T23:06:20.769Z,4.37
2023-04-10T23:08:47.399Z,4.03
2023-04-10T23:11:14.026Z,3.70
2023-04-10T23:13:41.859Z,3.47
2023-04-10T23:16:08.757Z,3.13
2023-04-10T23:18:36.999Z,2.83
2023-04-10T23:21:05.058Z,3.30
2023-04-10T23:23:31.571Z,3.23
2023-04-10T23:26:01.663Z,3.50
2023-04-10T23:28:28.684Z,3.43
2023-04-10T23:30:55.327Z,3.10
2023-04-10T23:33:22.351Z,2.97
2023-04-10T23:35:49.097Z,3.10
2023-04-10T23:38:16.024Z,3.53
2023-04-10T23:40:42.628Z,3.10
2023-04-10T23:43:09.187Z,2.80
2023-04-10T23:45:35.728Z,2.93
2023-04-10T23:48:02.344Z,2.90
2023-04-10T23:50:28.979Z,2.37
2023-04-10T23:52:55.807Z,2.80
2023-04-10T23:55:22.772Z,2.07
2023-04-10T23:57:49.333Z,2.27
